Terminal Aerodrome Forecast
Issued by NWS Tulsa, OK

Home | Current Version | Previous Version | Text Only | Print | Product List | Glossary On
Versions: 1 2 3 4 5 6 7 8 9 10 11 12 13 14 15 16 17 18 19 20 21 22 23 24 25 26
000
FTUS44 KTSA 161120
TAFTUL
TAF
KTUL 161120Z 1612/1712 01010KT 6SM BR OVC007
      TEMPO 1612/1616 4SM -FZDZ BR OVC004
     FM161600 36012KT P6SM OVC007
      TEMPO 1616/1620 4SM -DZSN
     FM162000 34014KT P6SM OVC007
     FM170500 33008KT P6SM SCT025=

USA.gov is the U.S. government's official web portal to all federal, state and local government web resources and services.